Aviation Digital Data Service (ADDS)

Output produced by METARs form (1211 UTC 26 March 2019)
found at http://www.aviationweather.gov/metar/data/
 
FABL 261200Z 11004KT 050V140 9999 SCT045TCU 26/13 Q1020 NOSIG
TAF FABL 261000Z 2612/2712 VRB03KT 9999 SCT030 TX29/2613Z TN13/2704Z 
     BECMG 2617/2619 CAVOK 
     BECMG 2702/2704 BKN010 
     BECMG 2703/2705 01012KT 
     BECMG 2706/2708 SCT020
       
FACV 261052Z 36004KT CAVOK 27/06 Q1019
FACT 261200Z 19014KT CAVOK 25/11 Q1018 NOSIG
TAF FACT 261000Z 2612/2718 15012KT CAVOK TX25/2612Z TN17/2704Z 
     FM261400 18023KT CAVOK 
     BECMG 2708/2710 34013KT 
     BECMG 2716/2718 BKN016
       
FAEL 261200Z 19006KT 140V220 CAVOK 22/11 Q1022
TAF FAEL 260900Z 2610/2619 25007KT 9999 BKN030 TX23/2612Z TN18/2618Z 
     BECMG 2610/2612 17006KT 
     BECMG 2616/2618 VRB03KT
       
FAGG 261200Z 11011KT 9999 FEW032 20/13 Q1021
TAF FAGG 261000Z 2612/2712 12013KT CAVOK TX24/2612Z TN17/2704Z 
     FM261500 10018KT CAVOK 
     FM270400 08010KT CAVOK 
     FM270700 VRB03KT CAVOK
       
FAHS 261200Z AUTO 18011KT //// // ////// 26/18 Q1018
TAF FAHS 260900Z 2610/2618 15008KT 9999 BKN020 TX29/2613Z TN21/2618Z 
     BECMG 2616/2618 BKN010
       
FAKM 261200Z 15003KT CAVOK 31/12 Q1019
TAF FAKM 260900Z 2610/2618 VRB03KT CAVOK TX29/2612Z TN22/2618Z
       
FALW 261200Z 24010KT CAVOK 26/// Q1016
FALA 261200Z VRB08KT 9999 SCT030 32/11 Q1020 NOSIG
TAF COR FALA 261122Z 2612/2712 33007KT 9999 SCT030 TX32/2613Z TN16/2703Z 
     PROB40 
     TEMPO 2613/2615 FEW040TCU 
     PROB40 
     TEMPO 2614/2621 5000 TSRA FEW035CB 
     BECMG 2619/2621 01012KT BKN015 
     PROB30 
     TEMPO 2702/2706 5000 BR BKN008 
     BECMG 2706/2708 BKN025
       
FAMM 261200Z 23005KT 9999 FEW040 34/02 Q1018 NOSIG
TAF FAMM 260900Z 2610/2618 27008KT CAVOK TX34/2613Z TN28/2618Z
       
FAOB 261200Z 15015KT 9999 SCT020 23/14 Q1020
TAF FAPM 260900Z 2610/2621 16010KT 9999 BKN015 TX20/2612Z TN16/2618Z 
     TEMPO 2610/2614 5000 -RA BKN010 
     PROB40 
     TEMPO 2615/2621 3000 RA BKN005
       
FAPN 261200Z AUTO 24005G15KT //// // ////// 36/07 Q1015
FAPE 261200Z 18008KT 150V210 9999 FEW040 21/13 Q1022 NOSIG
TAF FAPE 261000Z 2612/2712 15006KT CAVOK TX27/2712Z TN15/2703Z 
     BECMG 2622/2624 05012KT
       
TAF FARB 260900Z 2610/2618 20014KT 9999 BKN020 TX25/2612Z TN21/2618Z 
     PROB40 
     TEMPO 2612/2618 4000 RA BKN010
       
FASB 260848Z 06013KT CAVOK 26/07 Q1019
FAUT 261201Z 18003KT 5000 -DZ BR BKN008 OVC012 17/13 Q1024
TAF FAUT 260900Z 2610/2618 17005KT 8000 -DZ BKN012 OVC025 TX17/2612Z TN14/2618Z 
     PROB40 
     TEMPO 2610/2618 4800 -DZRA BKN008
       
FAUP 261200Z 32001KT CAVOK 33/08 Q1016 NOSIG
TAF FAUP 261000Z 2612/2712 VRB03KT CAVOK TX33/2613Z TN18/2704Z 
     BECMG 2708/2710 34010KT
       
FAWK 261100Z AUTO 03009KT //// // ////// ///// Q1021
TAF AMD FAWB 261010Z 2610/2618 06011KT CAVOK TX36/2613Z TN22/2618Z 
     BECMG 2610/2612 VRB03KT 
     BECMG 2611/2613 SCT035 
     PROB30 
     TEMPO 2613/2618 5000 TSRA FEW035CB